sensor_id;sensor_type;location;lat;lon;timestamp;P1;durP1;ratioP1;P2;durP2;ratioP2
11616;SDS011;5864;52.998;9.068;2023-04-15T00:00:23;9.77;;;7.30;;
11616;SDS011;5864;52.998;9.068;2023-04-15T00:03:08;8.27;;;6.80;;
11616;SDS011;5864;52.998;9.068;2023-04-15T00:05:56;11.20;;;7.10;;
11616;SDS011;5864;52.998;9.068;2023-04-15T00:08:43;9.73;;;6.97;;
11616;SDS011;5864;52.998;9.068;2023-04-15T00:11:29;8.87;;;6.60;;
11616;SDS011;5864;52.998;9.068;2023-04-15T00:14:14;10.57;;;7.47;;
11616;SDS011;5864;52.998;9.068;2023-04-15T00:17:00;9.83;;;7.50;;
11616;SDS011;5864;52.998;9.068;2023-04-15T00:19:46;11.10;;;8.20;;
11616;SDS011;5864;52.998;9.068;2023-04-15T00:22:33;10.57;;;8.17;;
11616;SDS011;5864;52.998;9.068;2023-04-15T00:25:19;11.00;;;8.50;;
11616;SDS011;5864;52.998;9.068;2023-04-15T00:28:05;11.00;;;8.03;;
11616;SDS011;5864;52.998;9.068;2023-04-15T00:30:51;10.73;;;8.90;;
11616;SDS011;5864;52.998;9.068;2023-04-15T00:33:37;9.93;;;8.17;;
11616;SDS011;5864;52.998;9.068;2023-04-15T00:36:23;11.93;;;9.00;;
11616;SDS011;5864;52.998;9.068;2023-04-15T00:39:10;11.30;;;8.17;;
11616;SDS011;5864;52.998;9.068;2023-04-15T00:41:56;12.60;;;8.93;;
11616;SDS011;5864;52.998;9.068;2023-04-15T00:44:42;12.67;;;8.40;;
11616;SDS011;5864;52.998;9.068;2023-04-15T00:47:28;11.03;;;8.50;;
11616;SDS011;5864;52.998;9.068;2023-04-15T00:50:14;10.87;;;8.57;;
11616;SDS011;5864;52.998;9.068;2023-04-15T00:52:59;12.77;;;8.87;;
11616;SDS011;5864;52.998;9.068;2023-04-15T00:55:46;13.53;;;8.20;;
11616;SDS011;5864;52.998;9.068;2023-04-15T00:58:32;11.20;;;8.90;;
11616;SDS011;5864;52.998;9.068;2023-04-15T01:01:20;11.73;;;8.67;;
11616;SDS011;5864;52.998;9.068;2023-04-15T01:04:06;11.63;;;9.20;;
11616;SDS011;5864;52.998;9.068;2023-04-15T01:06:52;11.30;;;8.70;;
11616;SDS011;5864;52.998;9.068;2023-04-15T01:09:38;8.63;;;7.73;;
11616;SDS011;5864;52.998;9.068;2023-04-15T01:12:25;11.17;;;8.83;;
11616;SDS011;5864;52.998;9.068;2023-04-15T01:15:11;10.37;;;7.73;;
11616;SDS011;5864;52.998;9.068;2023-04-15T01:17:58;10.43;;;8.33;;
11616;SDS011;5864;52.998;9.068;2023-04-15T01:20:45;11.77;;;8.70;;
11616;SDS011;5864;52.998;9.068;2023-04-15T01:23:30;12.30;;;8.83;;
11616;SDS011;5864;52.998;9.068;2023-04-15T01:26:17;12.87;;;8.60;;
11616;SDS011;5864;52.998;9.068;2023-04-15T01:29:04;10.53;;;8.87;;
11616;SDS011;5864;52.998;9.068;2023-04-15T01:31:51;11.00;;;8.53;;
11616;SDS011;5864;52.998;9.068;2023-04-15T01:34:38;13.63;;;8.57;;
11616;SDS011;5864;52.998;9.068;2023-04-15T01:37:24;12.57;;;8.07;;
11616;SDS011;5864;52.998;9.068;2023-04-15T01:40:10;10.47;;;7.73;;
11616;SDS011;5864;52.998;9.068;2023-04-15T01:42:57;12.57;;;8.57;;
11616;SDS011;5864;52.998;9.068;2023-04-15T01:45:43;11.63;;;8.60;;
11616;SDS011;5864;52.998;9.068;2023-04-15T01:48:29;11.37;;;8.77;;
11616;SDS011;5864;52.998;9.068;2023-04-15T01:51:16;10.17;;;8.30;;
11616;SDS011;5864;52.998;9.068;2023-04-15T01:54:01;11.83;;;8.43;;
11616;SDS011;5864;52.998;9.068;2023-04-15T01:56:47;11.13;;;8.63;;
11616;SDS011;5864;52.998;9.068;2023-04-15T01:59:34;16.63;;;9.53;;
11616;SDS011;5864;52.998;9.068;2023-04-15T02:02:19;12.20;;;9.37;;
11616;SDS011;5864;52.998;9.068;2023-04-15T02:05:06;11.50;;;8.90;;
11616;SDS011;5864;52.998;9.068;2023-04-15T02:07:52;12.80;;;9.47;;
11616;SDS011;5864;52.998;9.068;2023-04-15T02:10:37;15.00;;;9.67;;
11616;SDS011;5864;52.998;9.068;2023-04-15T02:13:23;13.03;;;9.90;;
11616;SDS011;5864;52.998;9.068;2023-04-15T02:16:17;14.17;;;9.70;;
11616;SDS011;5864;52.998;9.068;2023-04-15T02:19:03;12.77;;;9.63;;
11616;SDS011;5864;52.998;9.068;2023-04-15T02:21:49;12.30;;;8.97;;
11616;SDS011;5864;52.998;9.068;2023-04-15T02:24:34;11.33;;;8.80;;
11616;SDS011;5864;52.998;9.068;2023-04-15T02:27:20;14.67;;;10.03;;
11616;SDS011;5864;52.998;9.068;2023-04-15T02:30:06;13.07;;;9.80;;
11616;SDS011;5864;52.998;9.068;2023-04-15T02:32:53;12.30;;;9.17;;
11616;SDS011;5864;52.998;9.068;2023-04-15T02:35:39;14.37;;;10.10;;
11616;SDS011;5864;52.998;9.068;2023-04-15T02:38:27;13.33;;;9.30;;
11616;SDS011;5864;52.998;9.068;2023-04-15T02:41:14;11.10;;;8.43;;
11616;SDS011;5864;52.998;9.068;2023-04-15T02:44:01;12.20;;;8.70;;
11616;SDS011;5864;52.998;9.068;2023-04-15T02:46:47;13.40;;;9.50;;
11616;SDS011;5864;52.998;9.068;2023-04-15T02:49:37;11.23;;;8.33;;
11616;SDS011;5864;52.998;9.068;2023-04-15T02:52:23;13.10;;;8.67;;
11616;SDS011;5864;52.998;9.068;2023-04-15T02:55:08;10.80;;;8.13;;
11616;SDS011;5864;52.998;9.068;2023-04-15T02:57:54;11.10;;;8.47;;
11616;SDS011;5864;52.998;9.068;2023-04-15T03:00:41;12.10;;;8.30;;
11616;SDS011;5864;52.998;9.068;2023-04-15T03:03:26;11.50;;;8.30;;
11616;SDS011;5864;52.998;9.068;2023-04-15T03:06:13;9.93;;;7.70;;
11616;SDS011;5864;52.998;9.068;2023-04-15T03:08:59;9.53;;;7.73;;
11616;SDS011;5864;52.998;9.068;2023-04-15T03:11:45;13.83;;;8.00;;
11616;SDS011;5864;52.998;9.068;2023-04-15T03:14:31;9.53;;;7.33;;
11616;SDS011;5864;52.998;9.068;2023-04-15T03:17:17;10.07;;;7.57;;
11616;SDS011;5864;52.998;9.068;2023-04-15T03:20:04;11.97;;;7.73;;
11616;SDS011;5864;52.998;9.068;2023-04-15T03:22:52;10.43;;;7.57;;
11616;SDS011;5864;52.998;9.068;2023-04-15T03:25:38;10.73;;;7.73;;
11616;SDS011;5864;52.998;9.068;2023-04-15T03:28:24;10.70;;;8.03;;
11616;SDS011;5864;52.998;9.068;2023-04-15T03:31:10;13.20;;;7.67;;
11616;SDS011;5864;52.998;9.068;2023-04-15T03:33:56;8.80;;;7.27;;
11616;SDS011;5864;52.998;9.068;2023-04-15T03:36:42;11.70;;;7.63;;
11616;SDS011;5864;52.998;9.068;2023-04-15T03:39:29;10.70;;;8.17;;
11616;SDS011;5864;52.998;9.068;2023-04-15T03:42:15;11.57;;;8.37;;
11616;SDS011;5864;52.998;9.068;2023-04-15T03:45:00;12.07;;;8.77;;
11616;SDS011;5864;52.998;9.068;2023-04-15T03:47:46;10.40;;;8.60;;
11616;SDS011;5864;52.998;9.068;2023-04-15T03:50:32;12.00;;;8.70;;
11616;SDS011;5864;52.998;9.068;2023-04-15T03:53:17;12.60;;;9.43;;
11616;SDS011;5864;52.998;9.068;2023-04-15T03:56:07;15.37;;;11.03;;
11616;SDS011;5864;52.998;9.068;2023-04-15T03:58:53;15.13;;;10.90;;
11616;SDS011;5864;52.998;9.068;2023-04-15T04:01:39;14.00;;;9.90;;
11616;SDS011;5864;52.998;9.068;2023-04-15T04:04:24;14.27;;;11.17;;
11616;SDS011;5864;52.998;9.068;2023-04-15T04:07:13;14.57;;;11.17;;
11616;SDS011;5864;52.998;9.068;2023-04-15T04:10:00;14.30;;;11.00;;
11616;SDS011;5864;52.998;9.068;2023-04-15T04:12:48;16.57;;;11.07;;
11616;SDS011;5864;52.998;9.068;2023-04-15T04:15:34;15.40;;;11.43;;
11616;SDS011;5864;52.998;9.068;2023-04-15T04:18:21;18.17;;;12.83;;
11616;SDS011;5864;52.998;9.068;2023-04-15T04:21:06;18.43;;;12.80;;
11616;SDS011;5864;52.998;9.068;2023-04-15T04:23:52;16.20;;;12.07;;
11616;SDS011;5864;52.998;9.068;2023-04-15T04:26:38;14.83;;;11.33;;
11616;SDS011;5864;52.998;9.068;2023-04-15T04:29:25;14.63;;;11.90;;
11616;SDS011;5864;52.998;9.068;2023-04-15T04:32:11;15.33;;;11.17;;
11616;SDS011;5864;52.998;9.068;2023-04-15T04:34:57;15.87;;;11.60;;
11616;SDS011;5864;52.998;9.068;2023-04-15T04:37:43;18.23;;;11.93;;
11616;SDS011;5864;52.998;9.068;2023-04-15T04:40:29;14.53;;;10.87;;
11616;SDS011;5864;52.998;9.068;2023-04-15T04:43:15;16.77;;;11.50;;
11616;SDS011;5864;52.998;9.068;2023-04-15T04:46:02;13.83;;;10.57;;
11616;SDS011;5864;52.998;9.068;2023-04-15T04:48:48;14.67;;;11.07;;
11616;SDS011;5864;52.998;9.068;2023-04-15T04:51:34;14.37;;;10.13;;
11616;SDS011;5864;52.998;9.068;2023-04-15T04:54:20;15.07;;;10.53;;
11616;SDS011;5864;52.998;9.068;2023-04-15T04:57:06;13.70;;;10.27;;
11616;SDS011;5864;52.998;9.068;2023-04-15T04:59:52;14.37;;;10.13;;
11616;SDS011;5864;52.998;9.068;2023-04-15T05:02:39;14.07;;;10.13;;
11616;SDS011;5864;52.998;9.068;2023-04-15T05:05:27;12.77;;;10.13;;
11616;SDS011;5864;52.998;9.068;2023-04-15T05:08:13;13.40;;;9.90;;
11616;SDS011;5864;52.998;9.068;2023-04-15T05:11:01;13.00;;;9.87;;
11616;SDS011;5864;52.998;9.068;2023-04-15T05:13:47;15.00;;;9.87;;
11616;SDS011;5864;52.998;9.068;2023-04-15T05:16:32;11.67;;;9.60;;
11616;SDS011;5864;52.998;9.068;2023-04-15T05:19:19;12.97;;;9.57;;
11616;SDS011;5864;52.998;9.068;2023-04-15T05:22:05;15.17;;;10.17;;
11616;SDS011;5864;52.998;9.068;2023-04-15T05:24:51;15.37;;;10.67;;
11616;SDS011;5864;52.998;9.068;2023-04-15T05:27:37;13.93;;;10.83;;
11616;SDS011;5864;52.998;9.068;2023-04-15T05:30:23;14.90;;;10.17;;
11616;SDS011;5864;52.998;9.068;2023-04-15T05:33:09;14.60;;;10.93;;
11616;SDS011;5864;52.998;9.068;2023-04-15T05:35:56;14.00;;;10.73;;
11616;SDS011;5864;52.998;9.068;2023-04-15T05:38:42;17.07;;;11.77;;
11616;SDS011;5864;52.998;9.068;2023-04-15T05:41:27;15.60;;;11.33;;
11616;SDS011;5864;52.998;9.068;2023-04-15T05:44:13;14.70;;;10.93;;
11616;SDS011;5864;52.998;9.068;2023-04-15T05:46:59;15.00;;;11.30;;
11616;SDS011;5864;52.998;9.068;2023-04-15T05:49:46;13.40;;;10.93;;
11616;SDS011;5864;52.998;9.068;2023-04-15T05:52:33;16.00;;;11.43;;
11616;SDS011;5864;52.998;9.068;2023-04-15T05:55:19;16.40;;;11.47;;
11616;SDS011;5864;52.998;9.068;2023-04-15T05:58:05;15.97;;;12.00;;
11616;SDS011;5864;52.998;9.068;2023-04-15T06:00:51;15.60;;;11.40;;
11616;SDS011;5864;52.998;9.068;2023-04-15T06:03:36;15.50;;;12.80;;
11616;SDS011;5864;52.998;9.068;2023-04-15T06:06:22;17.17;;;12.13;;
11616;SDS011;5864;52.998;9.068;2023-04-15T06:09:09;15.87;;;12.00;;
11616;SDS011;5864;52.998;9.068;2023-04-15T06:11:55;16.13;;;11.90;;
11616;SDS011;5864;52.998;9.068;2023-04-15T06:14:41;15.57;;;12.07;;
11616;SDS011;5864;52.998;9.068;2023-04-15T06:17:27;15.33;;;12.47;;
11616;SDS011;5864;52.998;9.068;2023-04-15T06:20:12;14.90;;;12.00;;
11616;SDS011;5864;52.998;9.068;2023-04-15T06:22:59;14.13;;;10.90;;
11616;SDS011;5864;52.998;9.068;2023-04-15T06:25:46;14.30;;;11.03;;
11616;SDS011;5864;52.998;9.068;2023-04-15T06:28:32;15.00;;;11.80;;
11616;SDS011;5864;52.998;9.068;2023-04-15T06:31:18;15.47;;;11.23;;
11616;SDS011;5864;52.998;9.068;2023-04-15T06:34:03;12.57;;;10.40;;
11616;SDS011;5864;52.998;9.068;2023-04-15T06:36:49;16.27;;;10.97;;
11616;SDS011;5864;52.998;9.068;2023-04-15T06:39:35;13.90;;;10.30;;
11616;SDS011;5864;52.998;9.068;2023-04-15T06:42:22;13.73;;;11.03;;
11616;SDS011;5864;52.998;9.068;2023-04-15T06:45:10;14.17;;;11.00;;
11616;SDS011;5864;52.998;9.068;2023-04-15T06:47:55;11.97;;;10.33;;
11616;SDS011;5864;52.998;9.068;2023-04-15T06:50:41;13.77;;;10.83;;
11616;SDS011;5864;52.998;9.068;2023-04-15T06:53:27;12.23;;;9.40;;
11616;SDS011;5864;52.998;9.068;2023-04-15T06:56:13;11.77;;;9.10;;
11616;SDS011;5864;52.998;9.068;2023-04-15T06:59:00;11.47;;;9.40;;
11616;SDS011;5864;52.998;9.068;2023-04-15T07:01:46;11.90;;;10.07;;
11616;SDS011;5864;52.998;9.068;2023-04-15T07:04:31;11.30;;;8.87;;
11616;SDS011;5864;52.998;9.068;2023-04-15T07:07:17;10.07;;;8.43;;
11616;SDS011;5864;52.998;9.068;2023-04-15T07:10:04;10.37;;;8.37;;
11616;SDS011;5864;52.998;9.068;2023-04-15T07:12:50;10.23;;;8.90;;
11616;SDS011;5864;52.998;9.068;2023-04-15T07:15:37;10.50;;;8.70;;
11616;SDS011;5864;52.998;9.068;2023-04-15T07:18:23;9.73;;;8.23;;
11616;SDS011;5864;52.998;9.068;2023-04-15T07:21:09;10.10;;;8.00;;
11616;SDS011;5864;52.998;9.068;2023-04-15T07:23:55;9.57;;;7.93;;
11616;SDS011;5864;52.998;9.068;2023-04-15T07:26:41;8.83;;;7.70;;
11616;SDS011;5864;52.998;9.068;2023-04-15T07:29:27;10.90;;;8.03;;
11616;SDS011;5864;52.998;9.068;2023-04-15T07:32:14;9.90;;;7.83;;
11616;SDS011;5864;52.998;9.068;2023-04-15T07:35:00;11.80;;;8.97;;
11616;SDS011;5864;52.998;9.068;2023-04-15T07:37:46;11.73;;;9.03;;
11616;SDS011;5864;52.998;9.068;2023-04-15T07:40:32;10.13;;;8.37;;
11616;SDS011;5864;52.998;9.068;2023-04-15T07:43:17;10.63;;;8.37;;
11616;SDS011;5864;52.998;9.068;2023-04-15T07:46:04;9.47;;;8.10;;
11616;SDS011;5864;52.998;9.068;2023-04-15T07:48:51;11.30;;;9.23;;
11616;SDS011;5864;52.998;9.068;2023-04-15T07:51:37;9.40;;;8.40;;
11616;SDS011;5864;52.998;9.068;2023-04-15T07:54:23;10.43;;;8.63;;
11616;SDS011;5864;52.998;9.068;2023-04-15T07:57:09;10.40;;;8.10;;
11616;SDS011;5864;52.998;9.068;2023-04-15T07:59:55;9.43;;;7.47;;
11616;SDS011;5864;52.998;9.068;2023-04-15T08:02:41;9.77;;;7.83;;
11616;SDS011;5864;52.998;9.068;2023-04-15T08:05:28;9.83;;;7.93;;
11616;SDS011;5864;52.998;9.068;2023-04-15T08:08:14;10.00;;;8.27;;
11616;SDS011;5864;52.998;9.068;2023-04-15T08:11:00;8.20;;;7.27;;
11616;SDS011;5864;52.998;9.068;2023-04-15T08:13:45;10.17;;;8.27;;
11616;SDS011;5864;52.998;9.068;2023-04-15T08:16:31;8.53;;;7.40;;
11616;SDS011;5864;52.998;9.068;2023-04-15T08:19:17;8.17;;;7.20;;
11616;SDS011;5864;52.998;9.068;2023-04-15T08:22:04;8.33;;;7.17;;
11616;SDS011;5864;52.998;9.068;2023-04-15T08:24:50;8.87;;;7.57;;
11616;SDS011;5864;52.998;9.068;2023-04-15T08:27:35;8.77;;;7.53;;
11616;SDS011;5864;52.998;9.068;2023-04-15T08:30:21;8.30;;;7.27;;
11616;SDS011;5864;52.998;9.068;2023-04-15T08:33:07;8.83;;;7.90;;
11616;SDS011;5864;52.998;9.068;2023-04-15T08:35:52;7.70;;;6.90;;
11616;SDS011;5864;52.998;9.068;2023-04-15T08:38:39;8.57;;;7.67;;
11616;SDS011;5864;52.998;9.068;2023-04-15T08:41:25;8.93;;;8.03;;
11616;SDS011;5864;52.998;9.068;2023-04-15T08:44:12;9.33;;;8.43;;
11616;SDS011;5864;52.998;9.068;2023-04-15T08:46:59;9.23;;;8.30;;
11616;SDS011;5864;52.998;9.068;2023-04-15T08:49:45;9.63;;;8.63;;
11616;SDS011;5864;52.998;9.068;2023-04-15T08:52:36;10.23;;;9.23;;
11616;SDS011;5864;52.998;9.068;2023-04-15T08:55:24;10.10;;;8.73;;
11616;SDS011;5864;52.998;9.068;2023-04-15T08:58:12;9.93;;;8.90;;
11616;SDS011;5864;52.998;9.068;2023-04-15T09:01:00;9.33;;;8.30;;
11616;SDS011;5864;52.998;9.068;2023-04-15T09:03:46;9.47;;;8.47;;
11616;SDS011;5864;52.998;9.068;2023-04-15T09:06:34;9.80;;;8.80;;
11616;SDS011;5864;52.998;9.068;2023-04-15T09:09:20;10.20;;;9.17;;
11616;SDS011;5864;52.998;9.068;2023-04-15T09:12:07;11.20;;;8.77;;
11616;SDS011;5864;52.998;9.068;2023-04-15T09:14:53;9.67;;;8.70;;
11616;SDS011;5864;52.998;9.068;2023-04-15T09:17:41;10.07;;;9.10;;
11616;SDS011;5864;52.998;9.068;2023-04-15T09:20:27;9.17;;;8.27;;
11616;SDS011;5864;52.998;9.068;2023-04-15T09:23:13;9.20;;;8.30;;
11616;SDS011;5864;52.998;9.068;2023-04-15T09:26:00;9.50;;;8.50;;
11616;SDS011;5864;52.998;9.068;2023-04-15T09:28:48;9.60;;;8.60;;
11616;SDS011;5864;52.998;9.068;2023-04-15T09:31:33;9.43;;;8.33;;
11616;SDS011;5864;52.998;9.068;2023-04-15T09:34:19;8.90;;;8.00;;
11616;SDS011;5864;52.998;9.068;2023-04-15T09:37:05;9.13;;;8.23;;
11616;SDS011;5864;52.998;9.068;2023-04-15T09:39:53;10.43;;;8.43;;
11616;SDS011;5864;52.998;9.068;2023-04-15T09:42:53;10.57;;;8.60;;
11616;SDS011;5864;52.998;9.068;2023-04-15T09:45:46;10.07;;;9.00;;
11616;SDS011;5864;52.998;9.068;2023-04-15T09:48:32;12.03;;;9.40;;
11616;SDS011;5864;52.998;9.068;2023-04-15T09:51:19;10.37;;;9.27;;
11616;SDS011;5864;52.998;9.068;2023-04-15T09:54:18;9.67;;;8.63;;
11616;SDS011;5864;52.998;9.068;2023-04-15T09:57:06;10.10;;;8.93;;
11616;SDS011;5864;52.998;9.068;2023-04-15T09:59:52;11.23;;;9.17;;
11616;SDS011;5864;52.998;9.068;2023-04-15T10:02:39;11.30;;;9.97;;
11616;SDS011;5864;52.998;9.068;2023-04-15T10:05:25;13.47;;;10.63;;
11616;SDS011;5864;52.998;9.068;2023-04-15T10:08:12;11.57;;;10.33;;
11616;SDS011;5864;52.998;9.068;2023-04-15T10:10:59;13.67;;;10.70;;
11616;SDS011;5864;52.998;9.068;2023-04-15T10:13:46;12.70;;;10.53;;
11616;SDS011;5864;52.998;9.068;2023-04-15T10:16:33;12.13;;;10.70;;
11616;SDS011;5864;52.998;9.068;2023-04-15T10:19:24;13.20;;;11.53;;
11616;SDS011;5864;52.998;9.068;2023-04-15T10:22:11;16.53;;;12.73;;
11616;SDS011;5864;52.998;9.068;2023-04-15T10:24:58;13.70;;;11.53;;
11616;SDS011;5864;52.998;9.068;2023-04-15T10:27:43;12.30;;;10.97;;
11616;SDS011;5864;52.998;9.068;2023-04-15T10:30:31;14.70;;;12.07;;
11616;SDS011;5864;52.998;9.068;2023-04-15T10:33:19;13.17;;;11.63;;
11616;SDS011;5864;52.998;9.068;2023-04-15T10:36:07;15.23;;;12.57;;
11616;SDS011;5864;52.998;9.068;2023-04-15T10:38:54;15.20;;;12.17;;
11616;SDS011;5864;52.998;9.068;2023-04-15T10:41:39;17.10;;;12.80;;
11616;SDS011;5864;52.998;9.068;2023-04-15T10:44:25;17.60;;;13.63;;
11616;SDS011;5864;52.998;9.068;2023-04-15T10:47:12;16.67;;;13.07;;
11616;SDS011;5864;52.998;9.068;2023-04-15T10:50:01;19.27;;;13.30;;
11616;SDS011;5864;52.998;9.068;2023-04-15T10:52:50;17.20;;;13.37;;
11616;SDS011;5864;52.998;9.068;2023-04-15T10:55:36;17.97;;;13.57;;
11616;SDS011;5864;52.998;9.068;2023-04-15T10:58:22;19.20;;;13.97;;
11616;SDS011;5864;52.998;9.068;2023-04-15T11:01:08;19.47;;;13.73;;
11616;SDS011;5864;52.998;9.068;2023-04-15T11:03:55;20.07;;;14.13;;
11616;SDS011;5864;52.998;9.068;2023-04-15T11:06:43;18.63;;;13.93;;
11616;SDS011;5864;52.998;9.068;2023-04-15T11:09:31;21.50;;;15.07;;
11616;SDS011;5864;52.998;9.068;2023-04-15T11:12:17;21.23;;;14.83;;
11616;SDS011;5864;52.998;9.068;2023-04-15T11:15:26;19.03;;;15.00;;
11616;SDS011;5864;52.998;9.068;2023-04-15T11:18:13;21.93;;;14.90;;
11616;SDS011;5864;52.998;9.068;2023-04-15T11:21:01;23.63;;;15.60;;
11616;SDS011;5864;52.998;9.068;2023-04-15T11:23:49;22.87;;;15.77;;
11616;SDS011;5864;52.998;9.068;2023-04-15T11:26:36;24.67;;;16.57;;
11616;SDS011;5864;52.998;9.068;2023-04-15T11:29:27;23.03;;;15.87;;
11616;SDS011;5864;52.998;9.068;2023-04-15T11:32:14;22.03;;;16.23;;
11616;SDS011;5864;52.998;9.068;2023-04-15T11:34:59;26.73;;;16.97;;
11616;SDS011;5864;52.998;9.068;2023-04-15T11:37:47;49.33;;;19.93;;
11616;SDS011;5864;52.998;9.068;2023-04-15T11:40:33;25.27;;;17.33;;
11616;SDS011;5864;52.998;9.068;2023-04-15T11:43:21;26.90;;;17.73;;
11616;SDS011;5864;52.998;9.068;2023-04-15T11:46:08;26.43;;;17.60;;
11616;SDS011;5864;52.998;9.068;2023-04-15T11:48:53;29.33;;;18.80;;
11616;SDS011;5864;52.998;9.068;2023-04-15T11:51:38;29.13;;;18.33;;
11616;SDS011;5864;52.998;9.068;2023-04-15T11:54:24;29.53;;;18.43;;
11616;SDS011;5864;52.998;9.068;2023-04-15T11:57:10;32.20;;;19.47;;
11616;SDS011;5864;52.998;9.068;2023-04-15T11:59:57;32.67;;;20.33;;
11616;SDS011;5864;52.998;9.068;2023-04-15T12:02:42;35.90;;;20.93;;
11616;SDS011;5864;52.998;9.068;2023-04-15T12:05:29;38.67;;;23.03;;
11616;SDS011;5864;52.998;9.068;2023-04-15T12:08:14;37.73;;;22.23;;
11616;SDS011;5864;52.998;9.068;2023-04-15T12:11:00;37.60;;;23.27;;
11616;SDS011;5864;52.998;9.068;2023-04-15T12:13:46;41.33;;;24.33;;
11616;SDS011;5864;52.998;9.068;2023-04-15T12:16:34;41.80;;;24.37;;
11616;SDS011;5864;52.998;9.068;2023-04-15T12:19:24;41.70;;;25.27;;
11616;SDS011;5864;52.998;9.068;2023-04-15T12:22:12;40.73;;;23.97;;
11616;SDS011;5864;52.998;9.068;2023-04-15T12:24:58;40.10;;;25.00;;
11616;SDS011;5864;52.998;9.068;2023-04-15T12:27:49;41.27;;;26.07;;
11616;SDS011;5864;52.998;9.068;2023-04-15T12:30:36;48.40;;;27.00;;
11616;SDS011;5864;52.998;9.068;2023-04-15T12:33:34;45.57;;;27.20;;
11616;SDS011;5864;52.998;9.068;2023-04-15T12:36:19;42.03;;;26.30;;
11616;SDS011;5864;52.998;9.068;2023-04-15T12:39:05;43.33;;;27.13;;
11616;SDS011;5864;52.998;9.068;2023-04-15T12:41:50;38.93;;;24.73;;
11616;SDS011;5864;52.998;9.068;2023-04-15T12:44:36;41.70;;;24.97;;
11616;SDS011;5864;52.998;9.068;2023-04-15T12:47:23;38.80;;;24.83;;
11616;SDS011;5864;52.998;9.068;2023-04-15T12:50:10;39.07;;;24.93;;
11616;SDS011;5864;52.998;9.068;2023-04-15T12:52:55;41.90;;;25.53;;
11616;SDS011;5864;52.998;9.068;2023-04-15T12:55:41;41.90;;;24.53;;
11616;SDS011;5864;52.998;9.068;2023-04-15T12:58:27;43.07;;;25.90;;
11616;SDS011;5864;52.998;9.068;2023-04-15T13:01:12;38.03;;;24.17;;
11616;SDS011;5864;52.998;9.068;2023-04-15T13:03:58;39.37;;;25.90;;
11616;SDS011;5864;52.998;9.068;2023-04-15T13:06:45;34.63;;;23.57;;
11616;SDS011;5864;52.998;9.068;2023-04-15T13:09:31;36.43;;;24.77;;
11616;SDS011;5864;52.998;9.068;2023-04-15T13:12:17;35.87;;;24.97;;
11616;SDS011;5864;52.998;9.068;2023-04-15T13:15:03;38.47;;;24.57;;
11616;SDS011;5864;52.998;9.068;2023-04-15T13:17:49;36.60;;;24.87;;
11616;SDS011;5864;52.998;9.068;2023-04-15T13:20:35;32.87;;;23.30;;
11616;SDS011;5864;52.998;9.068;2023-04-15T13:23:22;35.73;;;24.90;;
11616;SDS011;5864;52.998;9.068;2023-04-15T13:26:08;31.67;;;23.03;;
11616;SDS011;5864;52.998;9.068;2023-04-15T13:28:54;36.53;;;25.53;;
11616;SDS011;5864;52.998;9.068;2023-04-15T13:31:39;31.23;;;22.17;;
11616;SDS011;5864;52.998;9.068;2023-04-15T13:34:25;32.63;;;22.07;;
11616;SDS011;5864;52.998;9.068;2023-04-15T13:37:11;29.03;;;21.20;;
11616;SDS011;5864;52.998;9.068;2023-04-15T13:39:58;31.93;;;22.60;;
11616;SDS011;5864;52.998;9.068;2023-04-15T13:42:43;28.57;;;21.03;;
11616;SDS011;5864;52.998;9.068;2023-04-15T13:45:30;30.50;;;21.93;;
11616;SDS011;5864;52.998;9.068;2023-04-15T13:48:16;30.03;;;21.53;;
11616;SDS011;5864;52.998;9.068;2023-04-15T13:51:01;32.33;;;22.10;;
11616;SDS011;5864;52.998;9.068;2023-04-15T13:53:47;30.07;;;22.53;;
11616;SDS011;5864;52.998;9.068;2023-04-15T13:56:34;29.37;;;21.27;;
11616;SDS011;5864;52.998;9.068;2023-04-15T13:59:20;26.50;;;20.57;;
11616;SDS011;5864;52.998;9.068;2023-04-15T14:02:06;29.73;;;21.57;;
11616;SDS011;5864;52.998;9.068;2023-04-15T14:04:51;28.80;;;21.77;;
11616;SDS011;5864;52.998;9.068;2023-04-15T14:07:37;27.07;;;20.50;;
11616;SDS011;5864;52.998;9.068;2023-04-15T14:10:23;27.17;;;21.13;;
11616;SDS011;5864;52.998;9.068;2023-04-15T14:13:10;27.40;;;20.40;;
11616;SDS011;5864;52.998;9.068;2023-04-15T14:15:56;27.37;;;20.87;;
11616;SDS011;5864;52.998;9.068;2023-04-15T14:18:42;28.00;;;20.10;;
11616;SDS011;5864;52.998;9.068;2023-04-15T14:21:28;25.77;;;20.27;;
11616;SDS011;5864;52.998;9.068;2023-04-15T14:24:15;25.23;;;20.03;;
11616;SDS011;5864;52.998;9.068;2023-04-15T14:27:01;29.77;;;21.53;;
11616;SDS011;5864;52.998;9.068;2023-04-15T14:29:48;27.13;;;20.17;;
11616;SDS011;5864;52.998;9.068;2023-04-15T14:32:34;25.67;;;20.17;;
11616;SDS011;5864;52.998;9.068;2023-04-15T14:35:20;26.43;;;20.73;;
11616;SDS011;5864;52.998;9.068;2023-04-15T14:38:07;27.10;;;19.93;;
11616;SDS011;5864;52.998;9.068;2023-04-15T14:40:53;26.07;;;20.70;;
11616;SDS011;5864;52.998;9.068;2023-04-15T14:43:39;27.80;;;20.87;;
11616;SDS011;5864;52.998;9.068;2023-04-15T14:46:26;26.00;;;20.27;;
11616;SDS011;5864;52.998;9.068;2023-04-15T14:49:12;23.23;;;19.20;;
11616;SDS011;5864;52.998;9.068;2023-04-15T14:51:58;26.90;;;20.50;;
11616;SDS011;5864;52.998;9.068;2023-04-15T14:54:44;28.63;;;20.77;;
11616;SDS011;5864;52.998;9.068;2023-04-15T14:57:30;26.90;;;20.13;;
11616;SDS011;5864;52.998;9.068;2023-04-15T15:00:15;26.17;;;21.07;;
11616;SDS011;5864;52.998;9.068;2023-04-15T15:03:02;25.33;;;19.87;;
11616;SDS011;5864;52.998;9.068;2023-04-15T15:05:49;25.90;;;19.70;;
11616;SDS011;5864;52.998;9.068;2023-04-15T15:08:34;25.10;;;19.33;;
11616;SDS011;5864;52.998;9.068;2023-04-15T15:11:21;26.10;;;18.63;;
11616;SDS011;5864;52.998;9.068;2023-04-15T15:14:07;25.07;;;19.60;;
11616;SDS011;5864;52.998;9.068;2023-04-15T15:16:52;28.23;;;20.87;;
11616;SDS011;5864;52.998;9.068;2023-04-15T15:19:39;26.20;;;18.80;;
11616;SDS011;5864;52.998;9.068;2023-04-15T15:22:25;27.33;;;20.03;;
11616;SDS011;5864;52.998;9.068;2023-04-15T15:25:11;25.60;;;19.60;;
11616;SDS011;5864;52.998;9.068;2023-04-15T15:27:57;23.07;;;17.53;;
11616;SDS011;5864;52.998;9.068;2023-04-15T15:30:43;22.33;;;15.57;;
11616;SDS011;5864;52.998;9.068;2023-04-15T15:33:28;19.90;;;14.27;;
11616;SDS011;5864;52.998;9.068;2023-04-15T15:36:15;13.73;;;11.33;;
11616;SDS011;5864;52.998;9.068;2023-04-15T15:39:01;13.10;;;11.23;;
11616;SDS011;5864;52.998;9.068;2023-04-15T15:41:47;12.57;;;9.80;;
11616;SDS011;5864;52.998;9.068;2023-04-15T15:44:33;10.13;;;8.30;;
11616;SDS011;5864;52.998;9.068;2023-04-15T15:47:20;10.00;;;8.50;;
11616;SDS011;5864;52.998;9.068;2023-04-15T15:50:06;10.03;;;8.00;;
11616;SDS011;5864;52.998;9.068;2023-04-15T15:52:53;9.37;;;7.53;;
11616;SDS011;5864;52.998;9.068;2023-04-15T15:55:38;8.83;;;7.57;;
11616;SDS011;5864;52.998;9.068;2023-04-15T15:58:24;9.97;;;7.80;;
11616;SDS011;5864;52.998;9.068;2023-04-15T16:01:10;10.77;;;8.07;;
11616;SDS011;5864;52.998;9.068;2023-04-15T16:03:55;9.83;;;8.07;;
11616;SDS011;5864;52.998;9.068;2023-04-15T16:06:42;8.67;;;7.73;;
11616;SDS011;5864;52.998;9.068;2023-04-15T16:09:30;11.53;;;8.53;;
11616;SDS011;5864;52.998;9.068;2023-04-15T16:12:16;9.47;;;7.53;;
11616;SDS011;5864;52.998;9.068;2023-04-15T16:15:02;9.60;;;8.17;;
11616;SDS011;5864;52.998;9.068;2023-04-15T16:17:48;9.43;;;8.00;;
11616;SDS011;5864;52.998;9.068;2023-04-15T16:20:34;10.80;;;8.23;;
11616;SDS011;5864;52.998;9.068;2023-04-15T16:23:19;10.47;;;8.20;;
11616;SDS011;5864;52.998;9.068;2023-04-15T16:26:07;9.30;;;8.30;;
11616;SDS011;5864;52.998;9.068;2023-04-15T16:28:53;9.37;;;8.00;;
11616;SDS011;5864;52.998;9.068;2023-04-15T16:31:39;16.17;;;8.33;;
11616;SDS011;5864;52.998;9.068;2023-04-15T16:34:25;9.43;;;8.03;;
11616;SDS011;5864;52.998;9.068;2023-04-15T16:37:12;11.50;;;8.23;;